Time;durP1;ratioP1;P1;durP2;ratioP2;P2;SDS_P1;SDS_P2;PMS_P1;PMS_P2;Temp;Humidity;BMP_temperature;BMP_pressure;BME280_temperature;BME280_humidity;BME280_pressure;Samples;Min_cycle;Max_cycle;Signal;HPM_P1;HPM_P2
2021/09/11 00:01:59;;;;;;;60.03;36.85;;;17.90;96.00;;;;;;5093883;28;20020;-67
2021/09/11 00:04:25;;;;;;;76.15;34.33;;;17.80;95.60;;;;;;5075144;28;20501;-67
2021/09/11 00:06:50;;;;;;;53.72;31.23;;;17.80;95.70;;;;;;5074603;28;20024;-67
2021/09/11 00:09:16;;;;;;;29.42;20.48;;;17.60;94.70;;;;;;5075174;28;20366;-67
2021/09/11 00:11:42;;;;;;;31.70;20.20;;;17.60;95.10;;;;;;5093722;28;20110;-67
2021/09/11 00:14:08;;;;;;;32.20;23.50;;;17.60;95.10;;;;;;5093317;28;20085;-66
2021/09/11 00:16:33;;;;;;;27.33;20.67;;;17.60;95.10;;;;;;5093502;28;20485;-67
2021/09/11 00:18:59;;;;;;;23.70;17.50;;;17.60;95.20;;;;;;5093232;28;20016;-67
2021/09/11 00:21:25;;;;;;;24.63;20.40;;;17.50;94.70;;;;;;5103714;28;20036;-67
2021/09/11 00:23:51;;;;;;;28.60;21.27;;;17.60;95.10;;;;;;5075091;28;20036;-66
2021/09/11 00:26:17;;;;;;;28.60;20.92;;;17.60;95.20;;;;;;5093695;28;20032;-67
2021/09/11 00:28:42;;;;;;;24.05;18.80;;;17.60;95.20;;;;;;5075174;28;20107;-67
2021/09/11 00:31:09;;;;;;;35.47;26.83;;;17.50;95.20;;;;;;5093252;28;20047;-67
2021/09/11 00:33:34;;;;;;;34.55;24.63;;;17.50;95.10;;;;;;5093032;28;20020;-67
2021/09/11 00:36:00;;;;;;;33.53;23.50;;;17.60;95.50;;;;;;5093306;28;20024;-67
2021/09/11 00:38:25;;;;;;;27.55;22.55;;;17.70;95.70;;;;;;5074970;28;20024;-67
2021/09/11 00:40:51;;;;;;;25.10;21.02;;;17.70;95.50;;;;;;5093405;28;20059;-67
2021/09/11 00:43:24;;;;;;;32.35;25.48;;;17.60;94.80;;;;;;5074913;28;20020;-67
2021/09/11 00:45:50;;;;;;;32.83;23.73;;;17.80;95.20;;;;;;5074855;28;20089;-67
2021/09/11 00:48:15;;;;;;;27.73;22.58;;;17.70;94.60;;;;;;5092926;28;20393;-67
2021/09/11 00:50:41;;;;;;;22.33;18.13;;;17.80;95.10;;;;;;5092886;28;20446;-67
2021/09/11 00:53:08;;;;;;;31.30;23.10;;;17.70;94.70;;;;;;5092463;28;20427;-67
2021/09/11 00:55:34;;;;;;;35.30;25.63;;;17.80;95.00;;;;;;5074723;28;20023;-67
2021/09/11 00:57:59;;;;;;;27.73;22.45;;;17.70;94.40;;;;;;5092791;28;20107;-67
2021/09/11 01:00:25;;;;;;;28.17;20.98;;;17.70;94.30;;;;;;5074541;28;20028;-67
2021/09/11 01:02:50;;;;;;;31.33;21.83;;;17.60;94.20;;;;;;5092429;28;20031;-67
2021/09/11 01:05:16;;;;;;;22.67;20.10;;;17.60;94.60;;;;;;5092644;28;20500;-67
2021/09/11 01:07:44;;;;;;;35.45;25.13;;;17.50;94.60;;;;;;5092672;28;20066;-67
2021/09/11 01:10:10;;;;;;;32.67;24.08;;;17.50;95.10;;;;;;5092603;28;20028;-67
2021/09/11 01:12:38;;;;;;;22.92;20.45;;;17.50;95.10;;;;;;5092222;28;20033;-67
2021/09/11 01:15:06;;;;;;;29.42;21.80;;;17.50;95.10;;;;;;5092439;28;20066;-67
2021/09/11 01:17:31;;;;;;;30.00;23.40;;;17.30;94.80;;;;;;5091953;28;20077;-67
2021/09/11 01:19:57;;;;;;;24.27;21.05;;;17.20;94.60;;;;;;5074693;28;20017;-67
2021/09/11 01:22:23;;;;;;;31.13;24.45;;;17.30;94.80;;;;;;5100100;28;20032;-67
2021/09/11 01:24:54;;;;;;;28.38;21.98;;;17.30;94.90;;;;;;5092229;28;20067;-67
2021/09/11 01:27:19;;;;;;;26.45;21.05;;;17.30;94.80;;;;;;5075483;28;20454;-67
2021/09/11 01:29:55;;;;;;;25.70;19.13;;;17.20;94.80;;;;;;5092539;28;20056;-67
2021/09/11 01:32:24;;;;;;;24.23;19.10;;;17.30;95.10;;;;;;5092090;28;20382;-67
2021/09/11 01:34:50;;;;;;;24.92;18.25;;;17.10;94.40;;;;;;5092263;28;20385;-67
2021/09/11 01:37:16;;;;;;;23.33;20.05;;;17.10;94.30;;;;;;5092153;28;20493;-67
2021/09/11 01:39:46;;;;;;;32.55;22.85;;;17.00;94.40;;;;;;5092315;28;20626;-67
2021/09/11 01:42:12;;;;;;;31.58;24.73;;;17.00;94.20;;;;;;5092239;28;20497;-67
2021/09/11 01:44:44;;;;;;;31.88;20.90;;;17.00;93.90;;;;;;5091879;28;20036;-67
2021/09/11 01:47:10;;;;;;;34.53;21.95;;;17.00;94.10;;;;;;5091699;28;20378;-67
2021/09/11 01:49:35;;;;;;;27.40;21.33;;;17.00;93.80;;;;;;5091791;28;20063;-67
2021/09/11 01:52:01;;;;;;;32.67;24.88;;;17.10;93.70;;;;;;5091861;28;20043;-67
2021/09/11 01:54:26;;;;;;;30.17;22.92;;;17.10;94.30;;;;;;5072925;28;20028;-67
2021/09/11 01:56:52;;;;;;;37.05;28.55;;;17.10;94.50;;;;;;5070969;28;20024;-67
2021/09/11 01:59:17;;;;;;;27.77;23.27;;;17.00;94.50;;;;;;5089782;28;20551;-67
2021/09/11 02:01:43;;;;;;;32.70;24.75;;;17.00;94.50;;;;;;5091379;28;20486;-67
2021/09/11 02:04:08;;;;;;;30.15;22.98;;;17.00;93.80;;;;;;5090825;28;20032;-67
2021/09/11 02:06:34;;;;;;;31.23;24.00;;;17.00;94.50;;;;;;5091505;28;20028;-67
2021/09/11 02:08:59;;;;;;;29.40;23.60;;;16.90;94.40;;;;;;5089483;28;20024;-67
2021/09/11 02:11:25;;;;;;;28.08;23.45;;;16.90;94.50;;;;;;5091424;28;20024;-67
2021/09/11 02:13:50;;;;;;;30.73;24.55;;;16.90;94.60;;;;;;5072330;28;20579;-67
2021/09/11 02:16:16;;;;;;;37.20;27.17;;;16.90;94.70;;;;;;5091330;28;20051;-67
2021/09/11 02:18:41;;;;;;;42.33;30.95;;;16.90;94.90;;;;;;5091416;28;20048;-67
2021/09/11 02:21:07;;;;;;;38.42;27.23;;;17.00;95.10;;;;;;5083324;28;20042;-67
2021/09/11 02:23:32;;;;;;;38.30;24.88;;;17.00;95.20;;;;;;5090754;28;20024;-67
2021/09/11 02:25:58;;;;;;;29.23;21.88;;;17.00;94.80;;;;;;5091205;28;20028;-67
2021/09/11 02:28:23;;;;;;;39.08;24.48;;;17.00;94.70;;;;;;5091655;28;20035;-67
2021/09/11 02:30:49;;;;;;;28.10;21.23;;;17.00;95.00;;;;;;5095573;28;20390;-67
2021/09/11 02:33:14;;;;;;;28.38;21.77;;;17.10;95.10;;;;;;5094496;28;20028;-67
2021/09/11 02:35:40;;;;;;;23.25;19.40;;;17.00;94.90;;;;;;5077120;28;20035;-67
2021/09/11 02:38:05;;;;;;;28.10;21.23;;;17.00;94.20;;;;;;5095281;28;20457;-67
2021/09/11 02:40:31;;;;;;;25.50;20.40;;;17.00;94.30;;;;;;5095217;28;20477;-67
2021/09/11 02:42:56;;;;;;;28.55;21.63;;;17.00;94.40;;;;;;5094355;28;20028;-67
2021/09/11 02:45:22;;;;;;;26.70;22.52;;;17.00;93.90;;;;;;5095139;28;20024;-67
2021/09/11 02:47:47;;;;;;;27.30;22.10;;;17.00;93.60;;;;;;5094933;28;20073;-67
2021/09/11 02:50:13;;;;;;;30.38;22.98;;;17.10;93.50;;;;;;5095045;28;20032;-67
2021/09/11 02:52:38;;;;;;;35.70;25.45;;;17.10;93.40;;;;;;5094227;28;20028;-67
2021/09/11 02:55:04;;;;;;;25.33;19.70;;;17.20;93.70;;;;;;5094884;28;20489;-67
2021/09/11 02:57:30;;;;;;;24.80;20.02;;;17.20;93.80;;;;;;5076768;28;20553;-67
2021/09/11 02:59:55;;;;;;;30.73;22.65;;;17.20;93.90;;;;;;5094574;28;20028;-67
2021/09/11 03:02:21;;;;;;;19.75;17.42;;;17.20;94.20;;;;;;5094190;28;20020;-67
2021/09/11 03:04:47;;;;;;;26.27;19.25;;;17.20;93.10;;;;;;5094757;28;20032;-67
2021/09/11 03:07:12;;;;;;;26.02;19.45;;;17.30;93.40;;;;;;5094610;28;20028;-67
2021/09/11 03:09:38;;;;;;;24.73;20.27;;;17.40;93.90;;;;;;5092665;28;20145;-67
2021/09/11 03:12:03;;;;;;;25.20;19.52;;;17.40;93.90;;;;;;5094716;28;20059;-67
2021/09/11 03:14:29;;;;;;;19.10;17.15;;;17.30;93.60;;;;;;5093783;28;20039;-67
2021/09/11 03:16:54;;;;;;;28.88;17.17;;;17.40;93.80;;;;;;5094573;28;20107;-67
2021/09/11 03:19:20;;;;;;;24.92;19.63;;;17.30;93.00;;;;;;5056333;28;20029;-67
2021/09/11 03:21:45;;;;;;;22.45;17.73;;;17.30;93.40;;;;;;5104242;28;20020;-67
2021/09/11 03:24:11;;;;;;;23.75;19.90;;;17.30;92.40;;;;;;5093482;28;20024;-67
2021/09/11 03:26:36;;;;;;;23.73;19.77;;;17.40;93.00;;;;;;5094335;28;20024;-67
2021/09/11 03:29:02;;;;;;;24.67;17.95;;;17.40;92.80;;;;;;5094171;28;20024;-67
2021/09/11 03:31:28;;;;;;;25.58;21.50;;;17.40;93.20;;;;;;5094300;28;20051;-67
2021/09/11 03:33:53;;;;;;;25.08;17.35;;;17.40;93.20;;;;;;5093216;28;20040;-67
2021/09/11 03:36:19;;;;;;;23.05;17.48;;;17.40;92.80;;;;;;5094276;28;20077;-67
2021/09/11 03:38:44;;;;;;;24.83;16.40;;;17.40;93.00;;;;;;5093949;28;20107;-67
2021/09/11 03:41:10;;;;;;;22.38;17.52;;;17.40;92.50;;;;;;5093878;28;20024;-67
2021/09/11 03:43:36;;;;;;;19.80;15.85;;;17.50;92.00;;;;;;5093154;28;20019;-67
2021/09/11 03:46:01;;;;;;;21.02;18.20;;;17.50;91.50;;;;;;5075807;28;20520;-67
2021/09/11 03:48:27;;;;;;;16.58;14.45;;;17.50;91.80;;;;;;5093773;28;20060;-67
2021/09/11 03:50:52;;;;;;;25.85;18.27;;;17.50;91.40;;;;;;5092470;28;20047;-67
2021/09/11 03:53:18;;;;;;;21.65;16.98;;;17.60;92.70;;;;;;5093550;28;20024;-67
2021/09/11 03:55:44;;;;;;;20.02;16.30;;;17.60;91.10;;;;;;5093955;28;20043;-67
2021/09/11 03:58:09;;;;;;;21.58;19.25;;;17.60;91.60;;;;;;5075804;28;20027;-67
2021/09/11 04:00:36;;;;;;;22.75;19.35;;;17.70;92.70;;;;;;5075716;28;20061;-67
2021/09/11 04:03:01;;;;;;;27.63;18.00;;;17.70;92.60;;;;;;5075406;28;20101;-67
2021/09/11 04:05:27;;;;;;;26.63;19.77;;;17.60;91.80;;;;;;5090063;28;20047;-67
2021/09/11 04:07:52;;;;;;;26.02;18.85;;;17.50;92.00;;;;;;5073772;28;20382;-67
2021/09/11 04:10:18;;;;;;;19.35;16.25;;;17.50;91.70;;;;;;5093540;28;20456;-67
2021/09/11 04:12:43;;;;;;;19.55;17.35;;;17.50;92.30;;;;;;5074474;28;20561;-67
2021/09/11 04:15:09;;;;;;;20.45;17.75;;;17.50;92.10;;;;;;5093389;28;20721;-67
2021/09/11 04:17:35;;;;;;;18.30;16.25;;;17.40;92.70;;;;;;5073352;28;20070;-67
2021/09/11 04:20:00;;;;;;;20.55;18.48;;;17.30;91.70;;;;;;5074912;28;20032;-67
2021/09/11 04:22:26;;;;;;;21.40;18.42;;;17.20;91.10;;;;;;5079907;28;20470;-67
2021/09/11 04:24:51;;;;;;;25.98;21.52;;;17.20;91.00;;;;;;5071138;28;20031;-67
2021/09/11 04:27:17;;;;;;;23.20;20.52;;;17.30;91.90;;;;;;5093196;28;20034;-67
2021/09/11 04:29:42;;;;;;;26.30;21.38;;;17.20;91.90;;;;;;5092859;28;20028;-67
2021/09/11 04:32:08;;;;;;;23.02;20.33;;;17.20;91.80;;;;;;5074960;28;20031;-67
2021/09/11 04:34:33;;;;;;;26.23;22.73;;;17.20;92.40;;;;;;5092175;28;20055;-66
2021/09/11 04:36:59;;;;;;;27.33;22.00;;;17.00;92.70;;;;;;5092967;28;20024;-66
2021/09/11 04:39:24;;;;;;;31.30;24.52;;;17.00;92.90;;;;;;5093100;28;20027;-67
2021/09/11 04:41:50;;;;;;;30.75;25.83;;;16.90;93.60;;;;;;5092704;28;20489;-66
2021/09/11 04:44:16;;;;;;;31.55;23.52;;;16.90;93.70;;;;;;5092369;28;20501;-67
2021/09/11 04:46:41;;;;;;;28.77;24.13;;;16.90;94.00;;;;;;5092995;28;20032;-67
2021/09/11 04:49:07;;;;;;;28.48;23.75;;;16.90;94.00;;;;;;5074464;28;20043;-66
2021/09/11 04:51:32;;;;;;;25.95;23.15;;;16.80;93.80;;;;;;5092194;28;20024;-66
2021/09/11 04:53:58;;;;;;;30.48;24.38;;;16.80;94.00;;;;;;5091938;28;20439;-67
2021/09/11 04:56:23;;;;;;;29.25;25.10;;;16.80;94.00;;;;;;5092574;28;20012;-66
2021/09/11 04:58:49;;;;;;;34.90;28.67;;;16.80;94.10;;;;;;5092615;28;20022;-66
2021/09/11 05:01:14;;;;;;;32.78;26.92;;;16.80;93.90;;;;;;5092333;28;20489;-66
2021/09/11 05:03:40;;;;;;;36.95;29.40;;;16.80;93.90;;;;;;5091566;28;20056;-66
2021/09/11 05:06:05;;;;;;;31.40;26.73;;;16.80;94.10;;;;;;5092504;28;20085;-67
2021/09/11 05:08:31;;;;;;;37.88;29.67;;;16.80;94.20;;;;;;5092411;28;20024;-67
2021/09/11 05:10:57;;;;;;;35.33;28.60;;;16.90;93.80;;;;;;5074336;28;20016;-67
2021/09/11 05:13:22;;;;;;;33.50;25.40;;;17.00;94.40;;;;;;5091502;28;20622;-67
2021/09/11 05:15:48;;;;;;;33.30;24.80;;;17.20;93.50;;;;;;5091075;28;20024;-68
2021/09/11 05:18:13;;;;;;;29.83;23.52;;;17.40;93.80;;;;;;5091657;28;20446;-67
2021/09/11 05:20:39;;;;;;;23.00;20.55;;;17.80;94.30;;;;;;5096082;28;20035;-67
2021/09/11 05:23:04;;;;;;;23.55;20.98;;;18.00;91.50;;;;;;5072637;28;20024;-66
2021/09/11 05:25:30;;;;;;;23.02;20.63;;;18.00;89.90;;;;;;5087602;28;20085;-66
2021/09/11 05:27:55;;;;;;;23.55;18.65;;;18.10;89.80;;;;;;5092212;28;20035;-66
2021/09/11 05:30:21;;;;;;;59.53;46.25;;;18.60;89.90;;;;;;5073674;28;20028;-66
2021/09/11 05:32:46;;;;;;;30.33;26.08;;;19.10;91.40;;;;;;5073722;28;20028;-68
2021/09/11 05:35:12;;;;;;;18.35;13.88;;;20.00;92.60;;;;;;5073910;28;20035;-67
2021/09/11 05:37:39;;;;;;;21.08;18.48;;;20.30;84.00;;;;;;5092058;28;20085;-67
2021/09/11 05:40:05;;;;;;;16.45;14.85;;;21.00;89.80;;;;;;5091977;28;20098;-68
2021/09/11 05:42:32;;;;;;;18.10;13.00;;;21.00;85.00;;;;;;5087824;28;20043;-67
2021/09/11 05:44:59;;;;;;;18.77;12.23;;;20.80;81.30;;;;;;5088032;28;20046;-67
2021/09/11 05:47:25;;;;;;;16.48;14.77;;;20.50;81.10;;;;;;5092075;28;20027;-70
2021/09/11 05:49:50;;;;;;;32.60;23.55;;;20.70;86.80;;;;;;5099163;22;20553;-72
2021/09/11 05:52:16;;;;;;;40.00;26.98;;;21.10;86.50;;;;;;5051555;28;20017;-69
2021/09/11 05:54:41;;;;;;;26.25;17.95;;;21.50;82.60;;;;;;5050010;28;20033;-69
2021/09/11 05:57:07;;;;;;;21.60;16.40;;;22.60;84.70;;;;;;5050682;28;20534;-69
2021/09/11 05:59:32;;;;;;;12.45;9.20;;;23.50;82.60;;;;;;5051862;28;20025;-70
2021/09/11 06:01:58;;;;;;;12.55;8.77;;;24.60;74.20;;;;;;5027165;28;20032;-70
2021/09/11 06:04:24;;;;;;;9.90;8.93;;;25.60;78.60;;;;;;5057826;28;20084;-68
2021/09/11 06:06:49;;;;;;;14.70;7.82;;;26.70;73.00;;;;;;5051685;28;20106;-69
2021/09/11 06:09:15;;;;;;;9.80;7.28;;;27.20;64.70;;;;;;5051511;28;20036;-69
2021/09/11 06:11:40;;;;;;;9.10;6.82;;;27.90;56.20;;;;;;5033822;28;20025;-69
2021/09/11 06:14:06;;;;;;;12.60;6.82;;;27.00;57.80;;;;;;5049444;28;20110;-69
2021/09/11 06:16:31;;;;;;;7.35;6.45;;;26.70;56.40;;;;;;5051698;28;20027;-70
2021/09/11 06:18:58;;;;;;;8.02;6.78;;;27.00;57.70;;;;;;5051684;28;20489;-68
2021/09/11 06:21:23;;;;;;;6.88;5.80;;;27.40;56.80;;;;;;5033466;28;20021;-68
2021/09/11 06:23:49;;;;;;;10.02;6.80;;;28.00;57.00;;;;;;5050772;28;20029;-69
2021/09/11 06:26:14;;;;;;;6.88;6.18;;;28.00;52.60;;;;;;5051497;28;20069;-69
